sensor_id;sensor_type;location;lat;lon;timestamp;P1;durP1;ratioP1;P2;durP2;ratioP2
3781;SDS011;6881;49.962;7.718;2022-09-24T00:00:17;3.97;;;3.53;;
3781;SDS011;6881;49.962;7.718;2022-09-24T00:02:42;4.10;;;3.60;;
3781;SDS011;6881;49.962;7.718;2022-09-24T00:05:08;5.30;;;3.70;;
3781;SDS011;6881;49.962;7.718;2022-09-24T00:07:33;4.13;;;3.50;;
3781;SDS011;6881;49.962;7.718;2022-09-24T00:09:58;3.57;;;3.27;;
3781;SDS011;6881;49.962;7.718;2022-09-24T00:12:24;4.10;;;3.30;;
3781;SDS011;6881;49.962;7.718;2022-09-24T00:14:49;4.30;;;3.43;;
3781;SDS011;6881;49.962;7.718;2022-09-24T00:17:15;4.73;;;3.60;;
3781;SDS011;6881;49.962;7.718;2022-09-24T00:19:40;4.77;;;3.60;;
3781;SDS011;6881;49.962;7.718;2022-09-24T00:22:05;7.50;;;4.50;;
3781;SDS011;6881;49.962;7.718;2022-09-24T00:24:31;4.17;;;3.87;;
3781;SDS011;6881;49.962;7.718;2022-09-24T00:27:15;4.63;;;3.43;;
3781;SDS011;6881;49.962;7.718;2022-09-24T00:29:40;6.23;;;3.80;;
3781;SDS011;6881;49.962;7.718;2022-09-24T00:32:06;4.30;;;3.87;;
3781;SDS011;6881;49.962;7.718;2022-09-24T00:34:32;3.40;;;3.10;;
3781;SDS011;6881;49.962;7.718;2022-09-24T00:36:57;7.37;;;3.87;;
3781;SDS011;6881;49.962;7.718;2022-09-24T00:39:23;6.00;;;3.53;;
3781;SDS011;6881;49.962;7.718;2022-09-24T00:41:48;5.57;;;3.20;;
3781;SDS011;6881;49.962;7.718;2022-09-24T00:52:32;3.90;;;3.30;;
3781;SDS011;6881;49.962;7.718;2022-09-24T00:54:59;6.57;;;3.70;;
3781;SDS011;6881;49.962;7.718;2022-09-24T00:57:24;8.00;;;3.77;;
3781;SDS011;6881;49.962;7.718;2022-09-24T00:59:51;6.27;;;3.80;;
3781;SDS011;6881;49.962;7.718;2022-09-24T01:02:18;8.87;;;4.33;;
3781;SDS011;6881;49.962;7.718;2022-09-24T01:04:44;5.20;;;3.00;;
3781;SDS011;6881;49.962;7.718;2022-09-24T01:07:10;4.10;;;2.97;;
3781;SDS011;6881;49.962;7.718;2022-09-24T01:09:36;7.17;;;4.40;;
3781;SDS011;6881;49.962;7.718;2022-09-24T01:12:18;7.17;;;3.50;;
3781;SDS011;6881;49.962;7.718;2022-09-24T01:25:06;5.53;;;4.10;;
3781;SDS011;6881;49.962;7.718;2022-09-24T01:30:20;4.63;;;3.70;;
3781;SDS011;6881;49.962;7.718;2022-09-24T01:35:15;5.07;;;2.77;;
3781;SDS011;6881;49.962;7.718;2022-09-24T01:37:47;4.53;;;3.07;;
3781;SDS011;6881;49.962;7.718;2022-09-24T01:40:14;6.07;;;3.57;;
3781;SDS011;6881;49.962;7.718;2022-09-24T01:42:41;6.20;;;3.77;;
3781;SDS011;6881;49.962;7.718;2022-09-24T01:45:08;6.03;;;3.57;;
3781;SDS011;6881;49.962;7.718;2022-09-24T01:47:35;11.13;;;3.90;;
3781;SDS011;6881;49.962;7.718;2022-09-24T01:50:14;7.87;;;3.10;;
3781;SDS011;6881;49.962;7.718;2022-09-24T01:52:45;5.40;;;3.97;;
3781;SDS011;6881;49.962;7.718;2022-09-24T01:55:16;6.87;;;3.60;;
3781;SDS011;6881;49.962;7.718;2022-09-24T01:57:47;6.07;;;4.07;;
3781;SDS011;6881;49.962;7.718;2022-09-24T02:00:16;7.07;;;3.73;;
3781;SDS011;6881;49.962;7.718;2022-09-24T02:02:47;6.17;;;4.00;;
3781;SDS011;6881;49.962;7.718;2022-09-24T02:07:57;7.20;;;3.97;;
3781;SDS011;6881;49.962;7.718;2022-09-24T02:10:45;4.63;;;3.50;;
3781;SDS011;6881;49.962;7.718;2022-09-24T02:13:12;11.90;;;4.03;;
3781;SDS011;6881;49.962;7.718;2022-09-24T02:15:40;8.00;;;3.37;;
3781;SDS011;6881;49.962;7.718;2022-09-24T02:18:08;7.77;;;4.07;;
3781;SDS011;6881;49.962;7.718;2022-09-24T02:20:34;3.83;;;3.30;;
3781;SDS011;6881;49.962;7.718;2022-09-24T02:23:00;11.50;;;3.80;;
3781;SDS011;6881;49.962;7.718;2022-09-24T02:26:09;8.23;;;4.10;;
3781;SDS011;6881;49.962;7.718;2022-09-24T02:28:22;7.13;;;4.20;;
3781;SDS011;6881;49.962;7.718;2022-09-24T02:30:50;6.03;;;4.20;;
3781;SDS011;6881;49.962;7.718;2022-09-24T02:33:18;8.00;;;3.50;;
3781;SDS011;6881;49.962;7.718;2022-09-24T02:36:03;5.73;;;3.57;;
3781;SDS011;6881;49.962;7.718;2022-09-24T02:38:28;8.60;;;3.90;;
3781;SDS011;6881;49.962;7.718;2022-09-24T02:40:54;5.93;;;4.00;;
3781;SDS011;6881;49.962;7.718;2022-09-24T02:43:20;6.13;;;3.80;;
3781;SDS011;6881;49.962;7.718;2022-09-24T02:45:45;5.37;;;4.70;;
3781;SDS011;6881;49.962;7.718;2022-09-24T02:48:10;5.80;;;4.17;;
3781;SDS011;6881;49.962;7.718;2022-09-24T02:50:36;9.13;;;3.93;;
3781;SDS011;6881;49.962;7.718;2022-09-24T02:53:01;9.13;;;3.60;;
3781;SDS011;6881;49.962;7.718;2022-09-24T02:55:26;6.97;;;4.60;;
3781;SDS011;6881;49.962;7.718;2022-09-24T02:57:52;6.70;;;4.80;;
3781;SDS011;6881;49.962;7.718;2022-09-24T03:00:18;7.70;;;4.07;;
3781;SDS011;6881;49.962;7.718;2022-09-24T03:02:45;8.77;;;4.43;;
3781;SDS011;6881;49.962;7.718;2022-09-24T03:05:11;9.73;;;4.30;;
3781;SDS011;6881;49.962;7.718;2022-09-24T03:07:37;6.17;;;4.33;;
3781;SDS011;6881;49.962;7.718;2022-09-24T03:10:02;9.53;;;4.80;;
3781;SDS011;6881;49.962;7.718;2022-09-24T03:12:28;9.67;;;4.50;;
3781;SDS011;6881;49.962;7.718;2022-09-24T03:14:54;10.03;;;5.00;;
3781;SDS011;6881;49.962;7.718;2022-09-24T03:17:19;8.67;;;3.93;;
3781;SDS011;6881;49.962;7.718;2022-09-24T03:19:44;6.83;;;4.57;;
3781;SDS011;6881;49.962;7.718;2022-09-24T03:22:10;5.63;;;4.17;;
3781;SDS011;6881;49.962;7.718;2022-09-24T03:24:35;8.73;;;3.93;;
3781;SDS011;6881;49.962;7.718;2022-09-24T03:27:00;5.93;;;4.30;;
3781;SDS011;6881;49.962;7.718;2022-09-24T03:29:26;14.50;;;4.43;;
3781;SDS011;6881;49.962;7.718;2022-09-24T03:32:10;6.07;;;4.40;;
3781;SDS011;6881;49.962;7.718;2022-09-24T03:34:35;8.60;;;4.03;;
3781;SDS011;6881;49.962;7.718;2022-09-24T03:37:00;5.90;;;3.90;;
3781;SDS011;6881;49.962;7.718;2022-09-24T03:39:26;10.07;;;4.10;;
3781;SDS011;6881;49.962;7.718;2022-09-24T03:41:51;8.97;;;4.07;;
3781;SDS011;6881;49.962;7.718;2022-09-24T03:44:16;6.53;;;3.80;;
3781;SDS011;6881;49.962;7.718;2022-09-24T03:46:42;5.90;;;3.50;;
3781;SDS011;6881;49.962;7.718;2022-09-24T03:49:07;5.30;;;3.77;;
3781;SDS011;6881;49.962;7.718;2022-09-24T03:51:33;5.60;;;3.50;;
3781;SDS011;6881;49.962;7.718;2022-09-24T03:53:58;7.73;;;4.27;;
3781;SDS011;6881;49.962;7.718;2022-09-24T03:56:23;6.63;;;4.10;;
3781;SDS011;6881;49.962;7.718;2022-09-24T03:58:49;5.87;;;4.07;;
3781;SDS011;6881;49.962;7.718;2022-09-24T04:01:14;7.60;;;4.13;;
3781;SDS011;6881;49.962;7.718;2022-09-24T04:03:45;6.23;;;4.13;;
3781;SDS011;6881;49.962;7.718;2022-09-24T04:06:11;8.03;;;4.10;;
3781;SDS011;6881;49.962;7.718;2022-09-24T04:08:36;4.47;;;3.30;;
3781;SDS011;6881;49.962;7.718;2022-09-24T04:11:02;9.07;;;4.40;;
3781;SDS011;6881;49.962;7.718;2022-09-24T04:13:27;8.47;;;4.93;;
3781;SDS011;6881;49.962;7.718;2022-09-24T04:15:52;5.20;;;4.30;;
3781;SDS011;6881;49.962;7.718;2022-09-24T04:18:18;5.10;;;4.60;;
3781;SDS011;6881;49.962;7.718;2022-09-24T04:20:44;6.70;;;4.17;;
3781;SDS011;6881;49.962;7.718;2022-09-24T04:23:10;6.13;;;3.90;;
3781;SDS011;6881;49.962;7.718;2022-09-24T04:25:36;7.23;;;4.20;;
3781;SDS011;6881;49.962;7.718;2022-09-24T04:28:04;6.43;;;3.90;;
3781;SDS011;6881;49.962;7.718;2022-09-24T04:30:31;7.27;;;4.17;;
3781;SDS011;6881;49.962;7.718;2022-09-24T04:32:57;11.57;;;5.63;;
3781;SDS011;6881;49.962;7.718;2022-09-24T04:35:27;4.53;;;4.03;;
3781;SDS011;6881;49.962;7.718;2022-09-24T04:37:54;9.20;;;5.17;;
3781;SDS011;6881;49.962;7.718;2022-09-24T04:40:20;10.03;;;4.83;;
3781;SDS011;6881;49.962;7.718;2022-09-24T04:42:45;4.53;;;3.40;;
3781;SDS011;6881;49.962;7.718;2022-09-24T04:45:11;7.30;;;5.00;;
3781;SDS011;6881;49.962;7.718;2022-09-24T04:47:38;4.27;;;3.73;;
3781;SDS011;6881;49.962;7.718;2022-09-24T04:50:07;7.07;;;4.00;;
3781;SDS011;6881;49.962;7.718;2022-09-24T04:52:33;4.43;;;3.90;;
3781;SDS011;6881;49.962;7.718;2022-09-24T04:54:59;8.03;;;4.80;;
3781;SDS011;6881;49.962;7.718;2022-09-24T04:57:25;4.43;;;3.90;;
3781;SDS011;6881;49.962;7.718;2022-09-24T04:59:51;5.80;;;5.07;;
3781;SDS011;6881;49.962;7.718;2022-09-24T05:02:17;8.67;;;5.13;;
3781;SDS011;6881;49.962;7.718;2022-09-24T05:04:43;6.63;;;5.03;;
3781;SDS011;6881;49.962;7.718;2022-09-24T05:07:08;5.23;;;3.80;;
3781;SDS011;6881;49.962;7.718;2022-09-24T05:09:35;7.53;;;5.00;;
3781;SDS011;6881;49.962;7.718;2022-09-24T05:12:01;11.43;;;6.10;;
3781;SDS011;6881;49.962;7.718;2022-09-24T05:14:27;11.13;;;5.73;;
3781;SDS011;6881;49.962;7.718;2022-09-24T05:16:52;9.20;;;5.37;;
3781;SDS011;6881;49.962;7.718;2022-09-24T05:19:17;7.13;;;5.47;;
3781;SDS011;6881;49.962;7.718;2022-09-24T05:21:43;5.83;;;4.53;;
3781;SDS011;6881;49.962;7.718;2022-09-24T05:24:08;7.10;;;5.30;;
3781;SDS011;6881;49.962;7.718;2022-09-24T05:26:33;8.20;;;5.37;;
3781;SDS011;6881;49.962;7.718;2022-09-24T05:29:17;9.00;;;4.53;;
3781;SDS011;6881;49.962;7.718;2022-09-24T05:31:43;9.00;;;4.47;;
3781;SDS011;6881;49.962;7.718;2022-09-24T05:34:09;8.07;;;7.20;;
3781;SDS011;6881;49.962;7.718;2022-09-24T05:36:34;7.27;;;6.40;;
3781;SDS011;6881;49.962;7.718;2022-09-24T05:39:00;13.87;;;6.33;;
3781;SDS011;6881;49.962;7.718;2022-09-24T05:41:25;9.90;;;6.30;;
3781;SDS011;6881;49.962;7.718;2022-09-24T05:43:50;9.67;;;5.77;;
3781;SDS011;6881;49.962;7.718;2022-09-24T05:46:16;10.63;;;5.50;;
3781;SDS011;6881;49.962;7.718;2022-09-24T05:48:41;8.83;;;6.17;;
3781;SDS011;6881;49.962;7.718;2022-09-24T05:51:07;11.47;;;6.40;;
3781;SDS011;6881;49.962;7.718;2022-09-24T05:53:32;11.17;;;6.27;;
3781;SDS011;6881;49.962;7.718;2022-09-24T05:55:58;8.10;;;5.43;;
3781;SDS011;6881;49.962;7.718;2022-09-24T05:58:24;10.40;;;5.47;;
3781;SDS011;6881;49.962;7.718;2022-09-24T06:00:50;5.13;;;4.63;;
3781;SDS011;6881;49.962;7.718;2022-09-24T06:03:16;10.43;;;5.00;;
3781;SDS011;6881;49.962;7.718;2022-09-24T06:05:43;7.63;;;4.50;;
3781;SDS011;6881;49.962;7.718;2022-09-24T06:08:16;7.47;;;4.93;;
3781;SDS011;6881;49.962;7.718;2022-09-24T06:10:43;7.57;;;5.10;;
3781;SDS011;6881;49.962;7.718;2022-09-24T06:13:10;6.13;;;4.47;;
3781;SDS011;6881;49.962;7.718;2022-09-24T06:15:38;6.90;;;4.83;;
3781;SDS011;6881;49.962;7.718;2022-09-24T06:18:04;7.63;;;5.60;;
3781;SDS011;6881;49.962;7.718;2022-09-24T06:20:30;8.00;;;4.03;;
3781;SDS011;6881;49.962;7.718;2022-09-24T06:22:56;6.00;;;3.67;;
3781;SDS011;6881;49.962;7.718;2022-09-24T06:25:22;7.00;;;5.23;;
3781;SDS011;6881;49.962;7.718;2022-09-24T06:28:07;5.60;;;3.80;;
3781;SDS011;6881;49.962;7.718;2022-09-24T06:30:33;7.53;;;4.17;;
3781;SDS011;6881;49.962;7.718;2022-09-24T06:33:00;11.60;;;5.33;;
3781;SDS011;6881;49.962;7.718;2022-09-24T06:35:29;6.93;;;4.37;;
3781;SDS011;6881;49.962;7.718;2022-09-24T06:37:54;6.40;;;5.03;;
3781;SDS011;6881;49.962;7.718;2022-09-24T06:40:19;6.63;;;5.20;;
3781;SDS011;6881;49.962;7.718;2022-09-24T06:42:49;6.00;;;5.07;;
3781;SDS011;6881;49.962;7.718;2022-09-24T06:45:15;5.07;;;4.50;;
3781;SDS011;6881;49.962;7.718;2022-09-24T06:47:40;5.73;;;4.17;;
3781;SDS011;6881;49.962;7.718;2022-09-24T06:50:06;7.93;;;4.50;;
3781;SDS011;6881;49.962;7.718;2022-09-24T06:52:32;6.40;;;4.17;;
3781;SDS011;6881;49.962;7.718;2022-09-24T06:54:58;7.20;;;4.70;;
3781;SDS011;6881;49.962;7.718;2022-09-24T06:57:23;7.33;;;3.70;;
3781;SDS011;6881;49.962;7.718;2022-09-24T06:59:48;6.67;;;4.70;;
3781;SDS011;6881;49.962;7.718;2022-09-24T07:02:15;5.60;;;3.40;;
3781;SDS011;6881;49.962;7.718;2022-09-24T07:04:41;6.10;;;5.33;;
3781;SDS011;6881;49.962;7.718;2022-09-24T07:07:06;7.10;;;6.40;;
3781;SDS011;6881;49.962;7.718;2022-09-24T07:09:50;5.80;;;5.20;;
3781;SDS011;6881;49.962;7.718;2022-09-24T07:12:15;8.87;;;6.50;;
3781;SDS011;6881;49.962;7.718;2022-09-24T07:14:41;6.67;;;4.60;;
3781;SDS011;6881;49.962;7.718;2022-09-24T07:17:06;6.40;;;4.23;;
3781;SDS011;6881;49.962;7.718;2022-09-24T07:19:31;6.90;;;4.13;;
3781;SDS011;6881;49.962;7.718;2022-09-24T07:21:57;6.20;;;4.07;;
3781;SDS011;6881;49.962;7.718;2022-09-24T07:24:22;7.67;;;4.10;;
3781;SDS011;6881;49.962;7.718;2022-09-24T07:26:47;5.83;;;3.40;;
3781;SDS011;6881;49.962;7.718;2022-09-24T07:29:13;7.17;;;4.20;;
3781;SDS011;6881;49.962;7.718;2022-09-24T07:31:38;8.10;;;4.30;;
3781;SDS011;6881;49.962;7.718;2022-09-24T07:34:05;5.60;;;3.87;;
3781;SDS011;6881;49.962;7.718;2022-09-24T07:36:33;4.17;;;3.60;;
3781;SDS011;6881;49.962;7.718;2022-09-24T07:38:59;6.40;;;4.90;;
3781;SDS011;6881;49.962;7.718;2022-09-24T07:41:25;8.03;;;4.80;;
3781;SDS011;6881;49.962;7.718;2022-09-24T07:43:50;12.30;;;8.00;;
3781;SDS011;6881;49.962;7.718;2022-09-24T07:46:16;12.90;;;6.20;;
3781;SDS011;6881;49.962;7.718;2022-09-24T07:48:41;5.83;;;5.27;;
3781;SDS011;6881;49.962;7.718;2022-09-24T07:51:10;9.33;;;5.20;;
3781;SDS011;6881;49.962;7.718;2022-09-24T07:53:35;7.53;;;5.07;;
3781;SDS011;6881;49.962;7.718;2022-09-24T07:56:02;6.23;;;5.33;;
3781;SDS011;6881;49.962;7.718;2022-09-24T07:58:28;8.40;;;4.73;;
3781;SDS011;6881;49.962;7.718;2022-09-24T08:00:56;5.40;;;4.67;;
3781;SDS011;6881;49.962;7.718;2022-09-24T08:03:22;6.53;;;5.00;;
3781;SDS011;6881;49.962;7.718;2022-09-24T08:05:47;5.90;;;3.70;;
3781;SDS011;6881;49.962;7.718;2022-09-24T08:08:13;8.03;;;4.57;;
3781;SDS011;6881;49.962;7.718;2022-09-24T08:10:38;5.20;;;4.30;;
3781;SDS011;6881;49.962;7.718;2022-09-24T08:13:05;6.23;;;4.03;;
3781;SDS011;6881;49.962;7.718;2022-09-24T08:15:31;4.80;;;4.03;;
3781;SDS011;6881;49.962;7.718;2022-09-24T08:18:00;4.40;;;3.60;;
3781;SDS011;6881;49.962;7.718;2022-09-24T08:20:27;5.53;;;3.73;;
3781;SDS011;6881;49.962;7.718;2022-09-24T08:22:53;4.57;;;3.70;;
3781;SDS011;6881;49.962;7.718;2022-09-24T08:25:18;7.30;;;4.47;;
3781;SDS011;6881;49.962;7.718;2022-09-24T08:27:44;4.83;;;4.10;;
3781;SDS011;6881;49.962;7.718;2022-09-24T08:30:09;5.60;;;3.73;;
3781;SDS011;6881;49.962;7.718;2022-09-24T08:32:35;6.33;;;3.20;;
3781;SDS011;6881;49.962;7.718;2022-09-24T08:35:00;6.33;;;3.60;;
3781;SDS011;6881;49.962;7.718;2022-09-24T08:37:27;9.37;;;4.03;;
3781;SDS011;6881;49.962;7.718;2022-09-24T08:39:53;6.87;;;4.13;;
3781;SDS011;6881;49.962;7.718;2022-09-24T08:44:57;6.63;;;4.13;;
3781;SDS011;6881;49.962;7.718;2022-09-24T08:55:11;5.60;;;4.23;;
3781;SDS011;6881;49.962;7.718;2022-09-24T09:00:50;4.70;;;4.07;;
3781;SDS011;6881;49.962;7.718;2022-09-24T09:11:49;4.23;;;3.83;;
3781;SDS011;6881;49.962;7.718;2022-09-24T09:14:18;8.33;;;5.60;;
3781;SDS011;6881;49.962;7.718;2022-09-24T09:16:51;7.13;;;4.70;;
3781;SDS011;6881;49.962;7.718;2022-09-24T09:19:19;4.93;;;4.43;;
3781;SDS011;6881;49.962;7.718;2022-09-24T09:21:52;6.80;;;4.17;;
3781;SDS011;6881;49.962;7.718;2022-09-24T09:24:25;5.97;;;4.80;;
3781;SDS011;6881;49.962;7.718;2022-09-24T09:26:55;4.40;;;4.00;;
3781;SDS011;6881;49.962;7.718;2022-09-24T09:29:23;7.00;;;4.27;;
3781;SDS011;6881;49.962;7.718;2022-09-24T09:32:00;6.73;;;4.60;;
3781;SDS011;6881;49.962;7.718;2022-09-24T09:37:21;6.30;;;5.00;;
3781;SDS011;6881;49.962;7.718;2022-09-24T09:42:45;5.40;;;4.57;;
3781;SDS011;6881;49.962;7.718;2022-09-24T09:45:17;6.33;;;4.30;;
3781;SDS011;6881;49.962;7.718;2022-09-24T09:48:03;6.50;;;4.20;;
3781;SDS011;6881;49.962;7.718;2022-09-24T09:50:36;6.50;;;3.63;;
3781;SDS011;6881;49.962;7.718;2022-09-24T09:53:04;5.60;;;4.70;;
3781;SDS011;6881;49.962;7.718;2022-09-24T09:55:31;6.17;;;3.90;;
3781;SDS011;6881;49.962;7.718;2022-09-24T10:00:48;6.63;;;4.30;;
3781;SDS011;6881;49.962;7.718;2022-09-24T10:05:54;5.47;;;4.63;;
3781;SDS011;6881;49.962;7.718;2022-09-24T10:08:20;5.80;;;4.60;;
3781;SDS011;6881;49.962;7.718;2022-09-24T10:10:51;4.60;;;4.20;;
3781;SDS011;6881;49.962;7.718;2022-09-24T10:13:19;4.90;;;4.50;;
3781;SDS011;6881;49.962;7.718;2022-09-24T10:15:48;5.10;;;4.13;;
3781;SDS011;6881;49.962;7.718;2022-09-24T10:18:15;4.30;;;3.90;;
3781;SDS011;6881;49.962;7.718;2022-09-24T10:20:44;5.10;;;3.77;;
3781;SDS011;6881;49.962;7.718;2022-09-24T10:23:12;4.33;;;3.80;;
3781;SDS011;6881;49.962;7.718;2022-09-24T10:25:47;5.70;;;3.97;;
3781;SDS011;6881;49.962;7.718;2022-09-24T10:28:15;5.90;;;3.90;;
3781;SDS011;6881;49.962;7.718;2022-09-24T10:31:11;5.00;;;3.40;;
3781;SDS011;6881;49.962;7.718;2022-09-24T10:33:41;9.80;;;4.60;;
3781;SDS011;6881;49.962;7.718;2022-09-24T10:36:27;4.90;;;4.17;;
3781;SDS011;6881;49.962;7.718;2022-09-24T10:39:01;4.70;;;4.23;;
3781;SDS011;6881;49.962;7.718;2022-09-24T10:41:32;4.43;;;4.03;;
3781;SDS011;6881;49.962;7.718;2022-09-24T10:44:00;5.00;;;3.73;;
3781;SDS011;6881;49.962;7.718;2022-09-24T10:49:19;4.43;;;3.40;;
3781;SDS011;6881;49.962;7.718;2022-09-24T11:00:37;4.77;;;4.20;;
3781;SDS011;6881;49.962;7.718;2022-09-24T11:13:56;5.53;;;3.70;;
3781;SDS011;6881;49.962;7.718;2022-09-24T11:19:13;4.33;;;3.93;;
3781;SDS011;6881;49.962;7.718;2022-09-24T11:22:16;4.57;;;3.97;;
3781;SDS011;6881;49.962;7.718;2022-09-24T11:25:19;5.17;;;3.90;;
3781;SDS011;6881;49.962;7.718;2022-09-24T11:30:31;4.10;;;3.63;;
3781;SDS011;6881;49.962;7.718;2022-09-24T11:33:13;4.53;;;3.93;;
3781;SDS011;6881;49.962;7.718;2022-09-24T11:35:55;4.87;;;4.10;;
3781;SDS011;6881;49.962;7.718;2022-09-24T11:38:35;4.33;;;3.93;;
3781;SDS011;6881;49.962;7.718;2022-09-24T11:46:45;6.50;;;4.50;;
3781;SDS011;6881;49.962;7.718;2022-09-24T11:51:46;4.40;;;4.00;;
3781;SDS011;6881;49.962;7.718;2022-09-24T11:57:12;5.27;;;4.77;;
3781;SDS011;6881;49.962;7.718;2022-09-24T11:59:43;6.87;;;4.57;;
3781;SDS011;6881;49.962;7.718;2022-09-24T12:07:44;4.07;;;3.77;;
3781;SDS011;6881;49.962;7.718;2022-09-24T12:16:09;5.33;;;4.60;;
3781;SDS011;6881;49.962;7.718;2022-09-24T12:18:49;5.30;;;4.80;;
3781;SDS011;6881;49.962;7.718;2022-09-24T12:21:20;4.67;;;4.30;;
3781;SDS011;6881;49.962;7.718;2022-09-24T12:23:50;4.63;;;4.23;;
3781;SDS011;6881;49.962;7.718;2022-09-24T12:26:16;5.10;;;3.70;;
3781;SDS011;6881;49.962;7.718;2022-09-24T12:28:47;6.40;;;4.70;;
3781;SDS011;6881;49.962;7.718;2022-09-24T12:31:48;5.30;;;4.80;;
3781;SDS011;6881;49.962;7.718;2022-09-24T12:37:06;5.03;;;4.53;;
3781;SDS011;6881;49.962;7.718;2022-09-24T12:39:41;5.93;;;5.33;;
3781;SDS011;6881;49.962;7.718;2022-09-24T12:42:08;4.70;;;4.30;;
3781;SDS011;6881;49.962;7.718;2022-09-24T12:44:39;5.60;;;5.10;;
3781;SDS011;6881;49.962;7.718;2022-09-24T12:47:27;5.90;;;5.30;;
3781;SDS011;6881;49.962;7.718;2022-09-24T12:49:56;6.33;;;5.73;;
3781;SDS011;6881;49.962;7.718;2022-09-24T12:52:27;8.10;;;5.57;;
3781;SDS011;6881;49.962;7.718;2022-09-24T12:54:57;5.00;;;4.40;;
3781;SDS011;6881;49.962;7.718;2022-09-24T12:57:25;6.87;;;6.17;;
3781;SDS011;6881;49.962;7.718;2022-09-24T12:59:58;6.33;;;5.73;;
3781;SDS011;6881;49.962;7.718;2022-09-24T13:02:43;7.37;;;6.00;;
3781;SDS011;6881;49.962;7.718;2022-09-24T13:07:54;6.33;;;5.27;;
3781;SDS011;6881;49.962;7.718;2022-09-24T13:10:21;5.50;;;5.10;;
3781;SDS011;6881;49.962;7.718;2022-09-24T13:12:48;5.53;;;5.03;;
3781;SDS011;6881;49.962;7.718;2022-09-24T13:20:34;7.17;;;6.47;;
3781;SDS011;6881;49.962;7.718;2022-09-24T13:25:36;6.70;;;5.83;;
3781;SDS011;6881;49.962;7.718;2022-09-24T13:28:02;5.90;;;5.37;;
3781;SDS011;6881;49.962;7.718;2022-09-24T13:30:43;6.47;;;5.83;;
3781;SDS011;6881;49.962;7.718;2022-09-24T13:33:26;6.33;;;5.73;;
3781;SDS011;6881;49.962;7.718;2022-09-24T13:38:43;6.30;;;5.80;;
3781;SDS011;6881;49.962;7.718;2022-09-24T13:41:21;6.10;;;5.50;;
3781;SDS011;6881;49.962;7.718;2022-09-24T13:43:51;7.23;;;5.87;;
3781;SDS011;6881;49.962;7.718;2022-09-24T13:46:21;6.50;;;5.90;;
3781;SDS011;6881;49.962;7.718;2022-09-24T13:48:51;7.60;;;6.90;;
3781;SDS011;6881;49.962;7.718;2022-09-24T13:51:20;6.90;;;6.30;;
3781;SDS011;6881;49.962;7.718;2022-09-24T13:53:51;7.20;;;5.90;;
3781;SDS011;6881;49.962;7.718;2022-09-24T13:56:20;7.17;;;6.47;;
3781;SDS011;6881;49.962;7.718;2022-09-24T13:58:46;7.20;;;6.37;;
3781;SDS011;6881;49.962;7.718;2022-09-24T14:01:25;7.00;;;6.30;;
3781;SDS011;6881;49.962;7.718;2022-09-24T14:06:40;10.07;;;6.37;;
3781;SDS011;6881;49.962;7.718;2022-09-24T14:11:55;6.90;;;5.40;;
3781;SDS011;6881;49.962;7.718;2022-09-24T14:14:23;6.10;;;5.60;;
3781;SDS011;6881;49.962;7.718;2022-09-24T14:16:50;7.20;;;6.10;;
3781;SDS011;6881;49.962;7.718;2022-09-24T14:19:19;6.87;;;5.87;;
3781;SDS011;6881;49.962;7.718;2022-09-24T14:21:46;7.40;;;6.70;;
3781;SDS011;6881;49.962;7.718;2022-09-24T14:26:45;10.37;;;6.27;;
3781;SDS011;6881;49.962;7.718;2022-09-24T14:29:34;10.40;;;6.90;;
3781;SDS011;6881;49.962;7.718;2022-09-24T14:32:06;8.90;;;7.67;;
3781;SDS011;6881;49.962;7.718;2022-09-24T14:34:52;10.37;;;9.37;;
3781;SDS011;6881;49.962;7.718;2022-09-24T14:37:38;7.63;;;6.93;;
3781;SDS011;6881;49.962;7.718;2022-09-24T14:40:12;8.63;;;7.83;;
3781;SDS011;6881;49.962;7.718;2022-09-24T14:45:20;9.53;;;7.53;;
3781;SDS011;6881;49.962;7.718;2022-09-24T14:47:57;7.87;;;7.07;;
3781;SDS011;6881;49.962;7.718;2022-09-24T14:50:30;8.73;;;7.10;;
3781;SDS011;6881;49.962;7.718;2022-09-24T14:53:00;9.03;;;8.13;;
3781;SDS011;6881;49.962;7.718;2022-09-24T14:55:36;10.03;;;7.80;;
3781;SDS011;6881;49.962;7.718;2022-09-24T14:58:03;9.23;;;8.17;;
3781;SDS011;6881;49.962;7.718;2022-09-24T15:00:29;9.47;;;8.50;;
3781;SDS011;6881;49.962;7.718;2022-09-24T15:03:06;9.17;;;8.37;;
3781;SDS011;6881;49.962;7.718;2022-09-24T15:05:37;9.93;;;8.90;;
3781;SDS011;6881;49.962;7.718;2022-09-24T15:11:05;7.83;;;7.03;;
3781;SDS011;6881;49.962;7.718;2022-09-24T15:13:35;8.63;;;7.80;;
3781;SDS011;6881;49.962;7.718;2022-09-24T15:18:43;17.30;;;12.40;;
3781;SDS011;6881;49.962;7.718;2022-09-24T15:21:17;12.47;;;10.20;;
3781;SDS011;6881;49.962;7.718;2022-09-24T15:23:42;14.47;;;11.10;;
3781;SDS011;6881;49.962;7.718;2022-09-24T15:26:08;14.40;;;9.33;;
3781;SDS011;6881;49.962;7.718;2022-09-24T15:28:33;9.70;;;8.10;;
3781;SDS011;6881;49.962;7.718;2022-09-24T15:30:58;7.23;;;6.63;;
3781;SDS011;6881;49.962;7.718;2022-09-24T15:33:24;11.77;;;9.03;;
3781;SDS011;6881;49.962;7.718;2022-09-24T15:35:49;9.07;;;8.13;;
3781;SDS011;6881;49.962;7.718;2022-09-24T15:38:15;9.20;;;8.37;;
3781;SDS011;6881;49.962;7.718;2022-09-24T15:40:41;10.50;;;6.97;;
3781;SDS011;6881;49.962;7.718;2022-09-24T15:43:13;9.03;;;6.00;;
3781;SDS011;6881;49.962;7.718;2022-09-24T15:45:42;5.40;;;4.90;;
3781;SDS011;6881;49.962;7.718;2022-09-24T15:48:07;7.30;;;5.03;;
3781;SDS011;6881;49.962;7.718;2022-09-24T15:50:33;7.30;;;4.43;;
3781;SDS011;6881;49.962;7.718;2022-09-24T15:52:59;6.00;;;4.63;;
3781;SDS011;6881;49.962;7.718;2022-09-24T15:55:25;6.50;;;4.43;;
3781;SDS011;6881;49.962;7.718;2022-09-24T15:57:50;4.87;;;4.37;;
3781;SDS011;6881;49.962;7.718;2022-09-24T16:00:17;4.03;;;3.63;;
3781;SDS011;6881;49.962;7.718;2022-09-24T16:02:44;5.63;;;4.40;;
3781;SDS011;6881;49.962;7.718;2022-09-24T16:05:16;7.20;;;4.93;;
3781;SDS011;6881;49.962;7.718;2022-09-24T16:07:42;11.20;;;7.33;;
3781;SDS011;6881;49.962;7.718;2022-09-24T16:10:08;8.47;;;7.50;;
3781;SDS011;6881;49.962;7.718;2022-09-24T16:12:34;10.40;;;7.80;;
3781;SDS011;6881;49.962;7.718;2022-09-24T16:14:59;11.47;;;7.70;;
3781;SDS011;6881;49.962;7.718;2022-09-24T16:17:25;13.20;;;8.93;;
3781;SDS011;6881;49.962;7.718;2022-09-24T16:19:51;17.27;;;10.57;;
3781;SDS011;6881;49.962;7.718;2022-09-24T16:22:17;14.30;;;11.00;;
3781;SDS011;6881;49.962;7.718;2022-09-24T16:24:42;14.70;;;11.63;;
3781;SDS011;6881;49.962;7.718;2022-09-24T16:27:08;16.10;;;10.20;;
3781;SDS011;6881;49.962;7.718;2022-09-24T16:29:33;12.50;;;9.97;;
3781;SDS011;6881;49.962;7.718;2022-09-24T16:31:58;8.70;;;7.80;;
3781;SDS011;6881;49.962;7.718;2022-09-24T16:34:26;12.13;;;7.83;;
3781;SDS011;6881;49.962;7.718;2022-09-24T16:36:51;14.90;;;8.50;;
3781;SDS011;6881;49.962;7.718;2022-09-24T16:39:16;7.97;;;7.13;;
3781;SDS011;6881;49.962;7.718;2022-09-24T16:41:43;8.70;;;6.90;;
3781;SDS011;6881;49.962;7.718;2022-09-24T16:44:09;10.03;;;8.93;;
3781;SDS011;6881;49.962;7.718;2022-09-24T16:46:38;9.93;;;8.80;;
3781;SDS011;6881;49.962;7.718;2022-09-24T16:49:04;13.87;;;12.53;;
3781;SDS011;6881;49.962;7.718;2022-09-24T16:51:29;16.90;;;15.10;;
3781;SDS011;6881;49.962;7.718;2022-09-24T16:53:55;16.57;;;14.40;;
3781;SDS011;6881;49.962;7.718;2022-09-24T16:56:21;16.20;;;13.50;;
3781;SDS011;6881;49.962;7.718;2022-09-24T16:58:47;12.40;;;11.20;;
3781;SDS011;6881;49.962;7.718;2022-09-24T17:01:13;12.30;;;11.10;;
3781;SDS011;6881;49.962;7.718;2022-09-24T17:03:40;12.23;;;10.90;;
3781;SDS011;6881;49.962;7.718;2022-09-24T17:06:06;19.40;;;15.03;;
3781;SDS011;6881;49.962;7.718;2022-09-24T17:08:35;18.47;;;16.70;;
3781;SDS011;6881;49.962;7.718;2022-09-24T17:11:20;14.17;;;12.57;;
3781;SDS011;6881;49.962;7.718;2022-09-24T17:13:46;11.90;;;10.70;;
3781;SDS011;6881;49.962;7.718;2022-09-24T17:16:12;11.13;;;10.03;;
3781;SDS011;6881;49.962;7.718;2022-09-24T17:18:38;11.07;;;8.83;;
3781;SDS011;6881;49.962;7.718;2022-09-24T17:21:07;10.40;;;9.10;;
3781;SDS011;6881;49.962;7.718;2022-09-24T17:23:35;9.37;;;8.57;;
3781;SDS011;6881;49.962;7.718;2022-09-24T17:28:31;13.60;;;12.20;;
3781;SDS011;6881;49.962;7.718;2022-09-24T17:30:57;13.40;;;11.87;;
3781;SDS011;6881;49.962;7.718;2022-09-24T17:33:22;13.13;;;9.60;;
3781;SDS011;6881;49.962;7.718;2022-09-24T17:35:54;7.50;;;6.80;;
3781;SDS011;6881;49.962;7.718;2022-09-24T17:38:26;7.67;;;6.90;;
3781;SDS011;6881;49.962;7.718;2022-09-24T17:41:28;8.40;;;6.77;;
3781;SDS011;6881;49.962;7.718;2022-09-24T17:43:47;9.83;;;8.83;;
3781;SDS011;6881;49.962;7.718;2022-09-24T17:46:13;13.30;;;11.93;;